createdAt,value
2022-09-17T00:01:28.279Z,0.80
2022-09-17T00:03:57.360Z,1.40
2022-09-17T00:06:26.567Z,0.90
2022-09-17T00:08:55.058Z,1.10
2022-09-17T00:11:25.758Z,0.73
2022-09-17T00:13:55.593Z,1.17
2022-09-17T00:16:27.430Z,1.07
2022-09-17T00:18:55.535Z,1.20
2022-09-17T00:21:23.901Z,1.00
2022-09-17T00:23:55.266Z,1.10
2022-09-17T00:26:24.756Z,1.13
2022-09-17T00:28:52.947Z,1.10
2022-09-17T00:31:21.543Z,1.03
2022-09-17T00:33:49.408Z,0.90
2022-09-17T00:36:17.381Z,1.17
2022-09-17T00:38:45.183Z,1.00
2022-09-17T00:41:12.839Z,0.90
2022-09-17T00:43:44.519Z,0.90
2022-09-17T00:46:24.716Z,0.85
2022-09-17T00:48:54.780Z,1.30
2022-09-17T00:51:29.879Z,1.10
2022-09-17T00:53:57.988Z,1.55
2022-09-17T00:56:29.913Z,1.10
2022-09-17T00:58:59.391Z,1.13
2022-09-17T01:01:27.189Z,1.07
2022-09-17T01:03:54.952Z,1.13
2022-09-17T01:06:31.978Z,1.00
2022-09-17T01:09:13.686Z,0.90
2022-09-17T01:12:01.771Z,0.90
2022-09-17T01:14:46.271Z,1.10
2022-09-17T01:17:25.485Z,1.20
2022-09-17T01:20:37.973Z,1.20
2022-09-17T01:23:32.201Z,1.23
2022-09-17T01:26:23.085Z,1.20
2022-09-17T01:28:56.916Z,1.20
2022-09-17T01:31:36.273Z,1.73
2022-09-17T01:34:14.343Z,1.10
2022-09-17T01:36:58.962Z,1.00
2022-09-17T01:39:34.520Z,1.50
2022-09-17T01:42:09.861Z,1.25
2022-09-17T01:44:45.751Z,1.00
2022-09-17T01:47:21.286Z,1.30
2022-09-17T01:49:52.542Z,1.37
2022-09-17T01:52:21.696Z,1.37
2022-09-17T01:54:54.138Z,1.50
2022-09-17T01:57:28.600Z,1.47
2022-09-17T02:00:01.766Z,1.20
2022-09-17T02:02:34.025Z,1.60
2022-09-17T02:05:06.822Z,1.20
2022-09-17T02:07:42.350Z,1.47
2022-09-17T02:10:13.468Z,1.50
2022-09-17T02:12:45.644Z,1.30
2022-09-17T02:15:22.509Z,1.27
2022-09-17T02:17:56.732Z,1.47
2022-09-17T02:20:30.964Z,1.40
2022-09-17T02:23:03.069Z,1.40
2022-09-17T02:25:37.633Z,1.30
2022-09-17T02:28:13.030Z,1.43
2022-09-17T02:30:40.898Z,1.40
2022-09-17T02:33:13.425Z,1.50
2022-09-17T02:35:41.169Z,1.70
2022-09-17T02:38:08.814Z,1.50
2022-09-17T02:40:41.495Z,1.33
2022-09-17T02:43:18.275Z,1.17
2022-09-17T02:45:56.246Z,1.43
2022-09-17T02:48:45.034Z,1.75
2022-09-17T02:51:24.595Z,1.30
2022-09-17T02:54:03.510Z,1.50
2022-09-17T02:56:44.278Z,1.57
2022-09-17T02:59:19.750Z,1.60
2022-09-17T03:01:53.916Z,1.50
2022-09-17T03:04:25.578Z,1.52
2022-09-17T03:06:53.983Z,1.52
2022-09-17T03:09:21.631Z,1.45
2022-09-17T03:11:49.264Z,1.50
2022-09-17T03:14:16.916Z,1.58
2022-09-17T03:16:44.575Z,1.20
2022-09-17T03:19:12.185Z,1.40
2022-09-17T03:21:41.128Z,1.50
2022-09-17T03:24:08.978Z,1.33
2022-09-17T03:26:36.706Z,1.73
2022-09-17T03:29:04.752Z,1.98
2022-09-17T03:31:32.676Z,1.60
2022-09-17T03:34:00.318Z,1.53
2022-09-17T03:36:28.425Z,1.40
2022-09-17T03:38:58.242Z,1.70
2022-09-17T03:41:26.285Z,1.52
2022-09-17T03:43:54.177Z,1.40
2022-09-17T03:46:22.257Z,1.52
2022-09-17T03:48:49.920Z,1.50
2022-09-17T03:51:17.626Z,2.30
2022-09-17T03:53:45.406Z,1.50
2022-09-17T03:56:14.630Z,1.52
2022-09-17T03:58:42.289Z,1.27
2022-09-17T04:01:10.049Z,1.40
2022-09-17T04:03:37.800Z,1.40
2022-09-17T04:06:05.498Z,1.52
2022-09-17T04:08:33.828Z,1.98
2022-09-17T04:11:01.417Z,1.27
2022-09-17T04:13:30.376Z,1.60
2022-09-17T04:15:58.055Z,1.60
2022-09-17T04:18:25.816Z,2.23
2022-09-17T04:20:53.485Z,1.67
2022-09-17T04:23:21.108Z,1.93
2022-09-17T04:25:48.917Z,1.65
2022-09-17T04:28:16.889Z,2.10
2022-09-17T04:30:45.886Z,1.58
2022-09-17T04:33:13.500Z,2.03
2022-09-17T04:35:41.182Z,1.50
2022-09-17T04:38:08.825Z,1.83
2022-09-17T04:40:36.929Z,1.70
2022-09-17T04:43:04.663Z,1.60
2022-09-17T04:45:33.652Z,1.60
2022-09-17T04:48:03.899Z,1.30
2022-09-17T04:50:32.135Z,1.88
2022-09-17T04:52:59.827Z,1.65
2022-09-17T04:55:27.714Z,1.70
2022-09-17T04:57:55.631Z,1.83
2022-09-17T05:00:24.440Z,1.73
2022-09-17T05:02:54.370Z,1.50
2022-09-17T05:05:24.865Z,1.48
2022-09-17T05:07:52.628Z,1.85
2022-09-17T05:10:22.308Z,1.88
2022-09-17T05:12:50.723Z,1.70
2022-09-17T05:15:18.624Z,2.15
2022-09-17T05:17:46.591Z,1.70
2022-09-17T05:20:15.617Z,2.08
2022-09-17T05:22:45.793Z,1.90
2022-09-17T05:25:14.400Z,2.22
2022-09-17T05:27:42.215Z,1.70
2022-09-17T05:30:11.825Z,1.65
2022-09-17T05:32:40.628Z,1.80
2022-09-17T05:35:09.535Z,2.00
2022-09-17T05:37:37.892Z,2.83
2022-09-17T05:40:09.144Z,2.00
2022-09-17T05:42:36.850Z,1.60
2022-09-17T05:45:05.415Z,1.80
2022-09-17T05:47:33.062Z,1.98
2022-09-17T05:50:00.688Z,2.17
2022-09-17T05:52:29.203Z,1.60
2022-09-17T05:54:57.000Z,2.10
2022-09-17T05:57:26.145Z,2.00
2022-09-17T05:59:53.843Z,2.00
2022-09-17T06:02:22.239Z,1.83
2022-09-17T06:04:50.499Z,1.92
2022-09-17T06:07:18.171Z,1.88
2022-09-17T06:09:48.439Z,2.00
2022-09-17T06:12:16.070Z,2.23
2022-09-17T06:14:45.113Z,1.90
2022-09-17T06:17:12.804Z,2.28
2022-09-17T06:19:40.593Z,2.03
2022-09-17T06:22:11.288Z,1.90
2022-09-17T06:24:38.906Z,1.88
2022-09-17T06:27:06.752Z,1.83
2022-09-17T06:29:34.352Z,1.80
2022-09-17T06:32:03.841Z,2.07
2022-09-17T06:34:31.479Z,2.20
2022-09-17T06:36:59.522Z,2.50
2022-09-17T06:39:27.116Z,1.75
2022-09-17T06:41:54.861Z,2.20
2022-09-17T06:44:22.510Z,2.27
2022-09-17T06:46:51.157Z,1.97
2022-09-17T06:49:20.505Z,2.00
2022-09-17T06:51:48.201Z,2.30
2022-09-17T06:54:15.928Z,1.90
2022-09-17T06:56:43.685Z,1.70
2022-09-17T06:59:11.360Z,1.73
2022-09-17T07:01:39.079Z,2.13
2022-09-17T07:04:06.814Z,2.00
2022-09-17T07:06:35.898Z,2.53
2022-09-17T07:09:05.938Z,2.27
2022-09-17T07:11:35.546Z,2.23
2022-09-17T07:14:04.440Z,2.17
2022-09-17T07:16:32.610Z,1.80
2022-09-17T07:19:01.061Z,2.20
2022-09-17T07:21:28.762Z,2.03
2022-09-17T07:23:57.922Z,2.37
2022-09-17T07:26:25.604Z,2.80
2022-09-17T07:28:53.281Z,2.30
2022-09-17T07:31:20.999Z,2.40
2022-09-17T07:33:48.753Z,2.27
2022-09-17T07:36:18.586Z,2.30
2022-09-17T07:38:47.114Z,2.00
2022-09-17T07:41:17.600Z,1.95
2022-09-17T07:43:45.970Z,2.50
2022-09-17T07:46:16.240Z,3.00
2022-09-17T07:48:44.009Z,2.43
2022-09-17T07:51:16.516Z,2.30
2022-09-17T07:53:44.198Z,2.63
2022-09-17T07:56:12.242Z,2.90
2022-09-17T07:58:42.179Z,2.42
2022-09-17T08:01:11.966Z,2.00
2022-09-17T08:03:40.891Z,2.50
2022-09-17T08:06:10.514Z,1.70
2022-09-17T08:08:39.526Z,1.80
2022-09-17T08:11:08.973Z,1.60
2022-09-17T08:13:36.960Z,1.80
2022-09-17T08:16:08.639Z,1.83
2022-09-17T08:18:36.897Z,2.17
2022-09-17T08:21:06.314Z,2.20
2022-09-17T08:23:36.777Z,2.10
2022-09-17T08:26:06.025Z,2.23
2022-09-17T08:28:34.041Z,2.15
2022-09-17T08:31:03.023Z,2.03
2022-09-17T08:33:34.101Z,2.50
2022-09-17T08:36:02.566Z,3.50
2022-09-17T08:38:37.683Z,2.43
2022-09-17T08:41:17.903Z,2.17
2022-09-17T08:43:52.298Z,2.47
2022-09-17T08:46:19.981Z,1.87
2022-09-17T08:48:56.975Z,3.07
2022-09-17T08:51:36.170Z,2.50
2022-09-17T08:54:11.142Z,2.63
2022-09-17T08:56:41.025Z,2.50
2022-09-17T08:59:21.699Z,2.90
2022-09-17T09:02:00.132Z,2.77
2022-09-17T09:04:55.598Z,3.30
2022-09-17T09:07:27.105Z,2.70
2022-09-17T09:10:05.847Z,2.73
2022-09-17T09:12:36.906Z,2.63
2022-09-17T09:15:09.087Z,2.40
2022-09-17T09:17:43.591Z,2.10
2022-09-17T09:20:19.756Z,3.47
2022-09-17T09:22:50.683Z,3.07
2022-09-17T09:25:24.345Z,2.43
2022-09-17T09:28:05.427Z,2.27
2022-09-17T09:30:43.649Z,3.13
2022-09-17T09:33:15.772Z,2.97
2022-09-17T09:35:46.005Z,3.00
2022-09-17T09:38:21.993Z,2.60
2022-09-17T09:40:55.559Z,2.53
2022-09-17T09:43:52.692Z,2.87
2022-09-17T09:46:38.265Z,2.77
2022-09-17T09:49:13.846Z,3.10
2022-09-17T09:51:55.897Z,2.10
2022-09-17T09:54:41.832Z,2.43
2022-09-17T09:57:13.923Z,2.53
2022-09-17T09:59:42.329Z,2.63
2022-09-17T10:02:10.939Z,2.47
2022-09-17T10:04:38.704Z,2.87
2022-09-17T10:07:09.610Z,2.93
2022-09-17T10:09:39.036Z,2.93
2022-09-17T10:12:17.344Z,2.60
2022-09-17T10:14:46.770Z,2.40
2022-09-17T10:17:22.839Z,2.47
2022-09-17T10:20:18.329Z,2.40
2022-09-17T10:22:51.443Z,1.97
2022-09-17T10:25:32.766Z,2.30
2022-09-17T10:28:03.016Z,2.60
2022-09-17T10:30:30.990Z,1.70
2022-09-17T10:33:20.499Z,2.17
2022-09-17T10:35:57.808Z,2.63
2022-09-17T10:38:32.885Z,1.90
2022-09-17T10:41:20.552Z,2.10
2022-09-17T10:43:48.807Z,1.70
2022-09-17T10:46:22.873Z,1.77
2022-09-17T10:49:07.083Z,1.50
2022-09-17T10:51:35.563Z,1.50
2022-09-17T10:54:36.102Z,1.83
2022-09-17T10:57:07.936Z,1.77
2022-09-17T11:00:00.241Z,1.97
2022-09-17T11:02:50.768Z,1.57
2022-09-17T11:05:51.815Z,1.57
2022-09-17T11:08:24.975Z,1.80
2022-09-17T11:11:01.517Z,1.90
2022-09-17T11:13:37.901Z,1.73
2022-09-17T11:16:17.269Z,1.70
2022-09-17T11:18:48.208Z,1.60
2022-09-17T11:21:42.167Z,1.50
2022-09-17T11:24:29.228Z,1.93
2022-09-17T11:27:11.061Z,1.80
2022-09-17T11:29:57.268Z,1.60
2022-09-17T11:32:46.703Z,1.87
2022-09-17T11:35:18.889Z,1.30
2022-09-17T11:37:51.331Z,1.43
2022-09-17T11:40:25.289Z,1.27
2022-09-17T11:43:00.191Z,1.23
2022-09-17T11:45:33.891Z,1.30
2022-09-17T11:48:06.428Z,1.33
2022-09-17T11:50:41.004Z,1.70
2022-09-17T11:53:18.650Z,1.87
2022-09-17T11:55:51.398Z,1.40
2022-09-17T11:58:30.403Z,1.60
2022-09-17T12:01:05.928Z,1.90
2022-09-17T12:03:37.451Z,2.30
2022-09-17T12:06:10.784Z,1.73
2022-09-17T12:08:47.126Z,1.60
2022-09-17T12:11:20.402Z,1.70
2022-09-17T12:13:53.090Z,1.87
2022-09-17T12:16:26.852Z,1.73
2022-09-17T12:19:01.896Z,1.50
2022-09-17T12:21:34.848Z,1.70
2022-09-17T12:24:15.054Z,1.27
2022-09-17T12:26:56.867Z,1.90
2022-09-17T12:29:37.688Z,1.50
2022-09-17T12:32:19.996Z,1.83
2022-09-17T12:34:58.352Z,1.53
2022-09-17T12:37:34.397Z,1.40
2022-09-17T12:40:15.092Z,1.30
2022-09-17T12:42:57.353Z,1.40
2022-09-17T12:45:46.332Z,1.23
2022-09-17T12:48:31.570Z,1.27
2022-09-17T12:51:12.164Z,1.70
2022-09-17T12:53:45.062Z,1.30
2022-09-17T12:56:31.069Z,1.30
2022-09-17T12:59:06.875Z,1.20
2022-09-17T13:01:45.603Z,1.33
2022-09-17T13:04:43.598Z,1.43
2022-09-17T13:07:36.740Z,1.30
2022-09-17T13:10:18.850Z,1.87
2022-09-17T13:12:49.977Z,1.50
2022-09-17T13:15:39.613Z,1.33
2022-09-17T13:18:26.489Z,1.40
2022-09-17T13:21:04.320Z,1.53
2022-09-17T13:23:39.981Z,1.57
2022-09-17T13:26:09.237Z,1.30
2022-09-17T13:28:47.001Z,1.50
2022-09-17T13:31:21.440Z,1.60
2022-09-17T13:33:58.792Z,1.33
2022-09-17T13:36:42.479Z,1.27
2022-09-17T13:39:12.727Z,1.10
2022-09-17T13:41:43.064Z,1.00
2022-09-17T13:44:12.589Z,1.07
2022-09-17T13:46:40.890Z,0.73
2022-09-17T13:49:16.988Z,1.30
2022-09-17T13:51:55.111Z,0.80
2022-09-17T13:54:25.627Z,1.00
2022-09-17T13:57:13.062Z,1.37
2022-09-17T13:59:54.233Z,1.23
2022-09-17T14:02:35.243Z,0.90
2022-09-17T14:05:29.143Z,1.00
2022-09-17T14:08:13.626Z,1.10
2022-09-17T14:10:43.500Z,0.90
2022-09-17T14:13:43.427Z,1.37
2022-09-17T14:16:46.324Z,1.13
2022-09-17T14:19:40.021Z,1.27
2022-09-17T14:22:17.643Z,1.03
2022-09-17T14:24:52.224Z,3.37
2022-09-17T14:27:38.642Z,2.97
2022-09-17T14:30:16.595Z,2.00
2022-09-17T14:32:52.896Z,1.60
2022-09-17T14:35:30.240Z,1.20
2022-09-17T14:38:03.346Z,1.10
2022-09-17T14:40:34.134Z,1.17
2022-09-17T14:43:04.214Z,1.17
2022-09-17T14:45:33.998Z,1.20
2022-09-17T14:48:20.599Z,1.40
2022-09-17T14:50:48.365Z,1.43
2022-09-17T14:53:19.756Z,1.10
2022-09-17T14:55:49.251Z,1.27
2022-09-17T14:58:32.972Z,1.27
2022-09-17T15:01:01.178Z,1.50
2022-09-17T15:03:28.971Z,1.30
2022-09-17T15:05:56.569Z,1.27
2022-09-17T15:08:27.928Z,1.47
2022-09-17T15:11:00.146Z,1.10
2022-09-17T15:13:29.344Z,1.33
2022-09-17T15:16:00.887Z,1.80
2022-09-17T15:18:36.175Z,1.47
2022-09-17T15:21:08.983Z,1.70
2022-09-17T15:23:38.847Z,1.50
2022-09-17T15:26:07.340Z,1.93
2022-09-17T15:28:37.876Z,1.47
2022-09-17T15:31:08.115Z,1.90
2022-09-17T15:33:36.152Z,1.63
2022-09-17T15:36:17.723Z,1.63
2022-09-17T15:38:46.825Z,1.77
2022-09-17T15:41:25.843Z,1.50
2022-09-17T15:44:03.746Z,1.60
2022-09-17T15:46:41.165Z,1.77
2022-09-17T15:49:30.704Z,1.60
2022-09-17T15:52:30.461Z,1.77
2022-09-17T15:54:59.897Z,1.47
2022-09-17T15:57:30.262Z,1.53
2022-09-17T16:00:08.183Z,1.80
2022-09-17T16:02:36.018Z,1.60
2022-09-17T16:05:50.857Z,2.00
2022-09-17T16:08:25.494Z,1.90
2022-09-17T16:10:54.617Z,1.43
2022-09-17T16:13:26.489Z,1.43
2022-09-17T16:15:56.592Z,2.13
2022-09-17T16:18:24.248Z,1.40
2022-09-17T16:20:51.845Z,2.40
2022-09-17T16:23:19.480Z,3.03
2022-09-17T16:25:47.178Z,1.30
2022-09-17T16:28:19.978Z,1.50
2022-09-17T16:30:49.575Z,1.10
2022-09-17T16:33:19.478Z,1.50
2022-09-17T16:35:47.148Z,1.37
2022-09-17T16:38:14.965Z,1.60
2022-09-17T16:40:43.588Z,1.80
2022-09-17T16:43:11.868Z,1.60
2022-09-17T16:45:40.933Z,1.40
2022-09-17T16:48:08.682Z,1.70
2022-09-17T16:50:37.229Z,1.60
2022-09-17T16:53:05.525Z,1.20
2022-09-17T16:55:33.617Z,1.23
2022-09-17T16:58:01.295Z,1.80
2022-09-17T17:00:29.531Z,1.70
2022-09-17T17:02:58.993Z,1.50
2022-09-17T17:05:27.827Z,1.97
2022-09-17T17:07:56.165Z,1.97
2022-09-17T17:10:24.171Z,2.20
2022-09-17T17:12:52.457Z,1.97
2022-09-17T17:15:20.878Z,1.77
2022-09-17T17:17:49.105Z,2.40
2022-09-17T17:20:19.000Z,1.97
2022-09-17T17:22:46.817Z,2.00
2022-09-17T17:25:15.549Z,2.10
2022-09-17T17:27:44.433Z,2.33
2022-09-17T17:30:16.806Z,2.20
2022-09-17T17:32:45.924Z,2.03
2022-09-17T17:35:13.622Z,2.13
2022-09-17T17:37:42.623Z,2.00
2022-09-17T17:40:11.280Z,2.10
2022-09-17T17:42:43.684Z,2.27
2022-09-17T17:45:12.164Z,2.10
2022-09-17T17:47:39.874Z,2.33
2022-09-17T17:50:08.617Z,2.23
2022-09-17T17:52:36.811Z,2.20
2022-09-17T17:55:07.344Z,1.67
2022-09-17T17:57:35.048Z,2.50
2022-09-17T18:00:03.890Z,1.87
2022-09-17T18:02:31.655Z,1.50
2022-09-17T18:05:03.931Z,2.07
2022-09-17T18:07:31.927Z,2.00
2022-09-17T18:09:59.673Z,1.57
2022-09-17T18:12:28.819Z,2.00
2022-09-17T18:14:56.572Z,1.37
2022-09-17T18:17:24.246Z,1.53
2022-09-17T18:19:52.347Z,1.50
2022-09-17T18:22:20.026Z,1.70
2022-09-17T18:24:47.631Z,1.60
2022-09-17T18:27:16.349Z,1.60
2022-09-17T18:29:45.359Z,1.27
2022-09-17T18:32:13.017Z,1.70
2022-09-17T18:34:42.243Z,1.30
2022-09-17T18:37:09.871Z,2.03
2022-09-17T18:42:25.458Z,1.50
2022-09-17T18:44:54.683Z,1.80
2022-09-17T18:47:22.316Z,1.60
2022-09-17T18:49:50.297Z,1.50
2022-09-17T18:52:17.974Z,1.70
2022-09-17T18:54:45.896Z,1.53
2022-09-17T18:57:13.797Z,1.63
2022-09-17T18:59:41.571Z,1.20
2022-09-17T19:02:12.969Z,1.40
2022-09-17T19:04:40.779Z,1.93
2022-09-17T19:07:08.406Z,1.43
2022-09-17T19:09:36.238Z,1.80
2022-09-17T19:12:04.174Z,1.33
2022-09-17T19:14:31.794Z,1.40
2022-09-17T19:16:59.463Z,1.47
2022-09-17T19:19:28.903Z,0.95
2022-09-17T19:21:56.897Z,0.93
2022-09-17T19:24:24.689Z,1.00
2022-09-17T19:26:52.462Z,1.02
2022-09-17T19:29:20.147Z,1.05
2022-09-17T19:31:48.032Z,1.08
2022-09-17T19:34:15.749Z,0.90
2022-09-17T19:36:44.904Z,0.90
2022-09-17T19:39:12.528Z,0.70
2022-09-17T19:41:40.248Z,0.80
2022-09-17T19:44:07.884Z,0.90
2022-09-17T19:46:35.606Z,0.98
2022-09-17T19:49:03.604Z,0.90
2022-09-17T19:51:31.975Z,1.20
2022-09-17T19:54:01.010Z,1.02
2022-09-17T19:56:28.902Z,1.30
2022-09-17T19:58:57.603Z,1.05
2022-09-17T20:01:25.477Z,1.20
2022-09-17T20:03:54.058Z,1.67
2022-09-17T20:06:23.452Z,1.10
2022-09-17T20:08:53.032Z,1.40
2022-09-17T20:11:24.569Z,1.40
2022-09-17T20:14:01.514Z,1.02
2022-09-17T20:16:30.434Z,1.40
2022-09-17T20:18:58.190Z,1.20
2022-09-17T20:21:27.794Z,1.20
2022-09-17T20:23:55.867Z,1.00
2022-09-17T20:26:25.491Z,1.40
2022-09-17T20:28:53.849Z,2.17
2022-09-17T20:31:23.203Z,1.23
2022-09-17T20:33:53.250Z,1.60
2022-09-17T20:36:22.752Z,2.28
2022-09-17T20:41:41.905Z,1.00
2022-09-17T20:44:09.680Z,1.63
2022-09-17T20:46:37.466Z,0.80
2022-09-17T20:49:05.412Z,1.00
2022-09-17T20:51:33.995Z,1.00
2022-09-17T20:54:02.640Z,0.98
2022-09-17T20:56:33.199Z,1.20
2022-09-17T20:59:09.337Z,1.10
2022-09-17T21:01:38.039Z,1.80
2022-09-17T21:04:07.561Z,1.10
2022-09-17T21:06:36.909Z,1.00
2022-09-17T21:09:06.070Z,1.70
2022-09-17T21:11:35.024Z,1.48
2022-09-17T21:14:04.357Z,1.50
2022-09-17T21:16:32.441Z,0.95
2022-09-17T21:19:03.079Z,1.08
2022-09-17T21:21:34.260Z,1.05
2022-09-17T21:24:02.960Z,1.35
2022-09-17T21:26:30.994Z,1.42
2022-09-17T21:28:59.114Z,1.98
2022-09-17T21:31:32.375Z,1.63
2022-09-17T21:34:02.063Z,1.50
2022-09-17T21:36:32.901Z,2.00
2022-09-17T21:39:02.851Z,1.90
2022-09-17T21:41:30.996Z,1.30
2022-09-17T21:43:59.098Z,1.50
2022-09-17T21:46:30.332Z,1.00
2022-09-17T21:49:00.217Z,1.27
2022-09-17T21:51:30.572Z,1.75
2022-09-17T21:54:00.789Z,1.35
2022-09-17T21:56:29.676Z,1.10
2022-09-17T21:58:59.358Z,1.38
2022-09-17T22:01:32.033Z,1.33
2022-09-17T22:04:02.048Z,1.48
2022-09-17T22:06:31.406Z,1.38
2022-09-17T22:09:00.305Z,1.30
2022-09-17T22:11:30.354Z,1.10
2022-09-17T22:14:00.706Z,1.52
2022-09-17T22:16:30.691Z,1.63
2022-09-17T22:18:59.692Z,1.20
2022-09-17T22:21:29.021Z,1.20
2022-09-17T22:23:58.898Z,1.38
2022-09-17T22:26:29.497Z,1.30
2022-09-17T22:28:57.608Z,1.55
2022-09-17T22:31:26.233Z,1.60
2022-09-17T22:33:55.333Z,1.70
2022-09-17T22:36:24.980Z,1.15
2022-09-17T22:38:54.254Z,1.27
2022-09-17T22:41:24.198Z,1.73
2022-09-17T22:43:53.956Z,1.52
2022-09-17T22:46:23.480Z,1.55
2022-09-17T22:48:51.361Z,1.77
2022-09-17T22:51:20.591Z,1.50
2022-09-17T22:53:48.298Z,1.65
2022-09-17T22:56:18.629Z,1.30
2022-09-17T22:58:46.926Z,1.30
2022-09-17T23:01:17.449Z,1.50
2022-09-17T23:03:47.031Z,2.08
2022-09-17T23:06:17.097Z,1.83
2022-09-17T23:08:46.170Z,1.60
2022-09-17T23:11:18.806Z,1.88
2022-09-17T23:13:46.550Z,1.65
2022-09-17T23:16:14.299Z,1.92
2022-09-17T23:18:42.108Z,1.10
2022-09-17T23:21:13.242Z,1.60
2022-09-17T23:23:42.254Z,1.70
2022-09-17T23:26:14.331Z,1.20
2022-09-17T23:28:42.098Z,1.60
2022-09-17T23:31:10.478Z,1.80
2022-09-17T23:33:38.844Z,1.75
2022-09-17T23:36:07.508Z,1.70
2022-09-17T23:38:35.819Z,1.63
2022-09-17T23:41:14.600Z,1.70
2022-09-17T23:43:42.797Z,1.80
2022-09-17T23:46:10.760Z,1.60
2022-09-17T23:48:38.664Z,1.83
2022-09-17T23:51:07.303Z,1.70
2022-09-17T23:53:36.613Z,1.90
2022-09-17T23:56:09.389Z,2.13
2022-09-17T23:58:38.359Z,2.13
